sensor_id;sensor_type;location;lat;lon;timestamp;pressure;altitude;pressure_sealevel;temperature;humidity
7052;BME280;3567;52.444;13.556;2023-02-02T00:01:16;100409.34;;;3.94;100.00
7052;BME280;3567;52.444;13.556;2023-02-02T00:03:42;100402.06;;;4.03;100.00
7052;BME280;3567;52.444;13.556;2023-02-02T00:06:07;100408.63;;;4.07;100.00
7052;BME280;3567;52.444;13.556;2023-02-02T00:08:33;100397.25;;;4.13;100.00
7052;BME280;3567;52.444;13.556;2023-02-02T00:11:00;100384.66;;;4.22;100.00
7052;BME280;3567;52.444;13.556;2023-02-02T00:13:26;100386.72;;;4.26;99.07
7052;BME280;3567;52.444;13.556;2023-02-02T00:15:52;100395.72;;;4.32;98.14
7052;BME280;3567;52.444;13.556;2023-02-02T00:18:17;100379.03;;;4.38;98.24
7052;BME280;3567;52.444;13.556;2023-02-02T00:20:43;100374.34;;;4.40;98.18
7052;BME280;3567;52.444;13.556;2023-02-02T00:23:09;100392.69;;;4.41;98.50
7052;BME280;3567;52.444;13.556;2023-02-02T00:25:34;100382.72;;;4.43;98.66
7052;BME280;3567;52.444;13.556;2023-02-02T00:28:00;100385.19;;;4.45;99.41
7052;BME280;3567;52.444;13.556;2023-02-02T00:30:25;100384.16;;;4.46;97.65
7052;BME280;3567;52.444;13.556;2023-02-02T00:32:51;100378.03;;;4.45;98.93
7052;BME280;3567;52.444;13.556;2023-02-02T00:35:17;100359.25;;;4.47;98.96
7052;BME280;3567;52.444;13.556;2023-02-02T00:37:43;100366.84;;;4.50;98.06
7052;BME280;3567;52.444;13.556;2023-02-02T00:40:09;100367.44;;;4.52;96.99
7052;BME280;3567;52.444;13.556;2023-02-02T00:42:34;100369.34;;;4.58;98.02
7052;BME280;3567;52.444;13.556;2023-02-02T00:45:00;100369.94;;;4.60;98.17
7052;BME280;3567;52.444;13.556;2023-02-02T00:47:42;100364.88;;;4.65;97.34
7052;BME280;3567;52.444;13.556;2023-02-02T00:50:10;100356.69;;;4.67;97.35
7052;BME280;3567;52.444;13.556;2023-02-02T00:52:35;100353.84;;;4.68;98.35
7052;BME280;3567;52.444;13.556;2023-02-02T00:55:01;100353.44;;;4.65;97.84
7052;BME280;3567;52.444;13.556;2023-02-02T00:57:26;100352.63;;;4.64;98.66
7052;BME280;3567;52.444;13.556;2023-02-02T00:59:51;100363.00;;;4.59;98.48
7052;BME280;3567;52.444;13.556;2023-02-02T01:02:17;100365.66;;;4.59;98.87
7052;BME280;3567;52.444;13.556;2023-02-02T01:04:42;100353.41;;;4.58;99.62
7052;BME280;3567;52.444;13.556;2023-02-02T01:07:07;100367.28;;;4.60;99.46
7052;BME280;3567;52.444;13.556;2023-02-02T01:09:33;100362.59;;;4.62;98.42
7052;BME280;3567;52.444;13.556;2023-02-02T01:11:58;100360.38;;;4.66;98.60
7052;BME280;3567;52.444;13.556;2023-02-02T01:14:24;100363.22;;;4.64;98.90
7052;BME280;3567;52.444;13.556;2023-02-02T01:16:49;100362.59;;;4.62;100.00
7052;BME280;3567;52.444;13.556;2023-02-02T01:19:15;100366.69;;;4.58;100.00
7052;BME280;3567;52.444;13.556;2023-02-02T01:21:41;100357.88;;;4.51;100.00
7052;BME280;3567;52.444;13.556;2023-02-02T01:24:07;100347.25;;;4.44;100.00
7052;BME280;3567;52.444;13.556;2023-02-02T01:26:33;100345.59;;;4.37;100.00
7052;BME280;3567;52.444;13.556;2023-02-02T01:28:58;100359.59;;;4.31;100.00
7052;BME280;3567;52.444;13.556;2023-02-02T01:31:24;100356.94;;;4.24;100.00
7052;BME280;3567;52.444;13.556;2023-02-02T01:33:50;100366.72;;;4.24;100.00
7052;BME280;3567;52.444;13.556;2023-02-02T01:36:19;100367.31;;;4.26;100.00
7052;BME280;3567;52.444;13.556;2023-02-02T01:38:45;100368.16;;;4.26;100.00
7052;BME280;3567;52.444;13.556;2023-02-02T01:41:13;100368.56;;;4.23;100.00
7052;BME280;3567;52.444;13.556;2023-02-02T01:46:15;100377.84;;;4.06;100.00
7052;BME280;3567;52.444;13.556;2023-02-02T01:48:50;100372.47;;;3.99;100.00
7052;BME280;3567;52.444;13.556;2023-02-02T01:51:19;100363.28;;;3.95;100.00
7052;BME280;3567;52.444;13.556;2023-02-02T01:53:46;100380.78;;;3.89;100.00
7052;BME280;3567;52.444;13.556;2023-02-02T01:56:18;100373.00;;;3.88;100.00
7052;BME280;3567;52.444;13.556;2023-02-02T01:58:45;100368.53;;;3.88;100.00
7052;BME280;3567;52.444;13.556;2023-02-02T02:01:11;100375.28;;;3.91;100.00
7052;BME280;3567;52.444;13.556;2023-02-02T02:03:37;100377.75;;;3.92;100.00
7052;BME280;3567;52.444;13.556;2023-02-02T02:06:05;100378.38;;;3.94;100.00
7052;BME280;3567;52.444;13.556;2023-02-02T02:08:41;100379.19;;;3.95;100.00
7052;BME280;3567;52.444;13.556;2023-02-02T02:11:07;100374.88;;;3.94;100.00
7052;BME280;3567;52.444;13.556;2023-02-02T02:13:35;100390.16;;;3.92;100.00
7052;BME280;3567;52.444;13.556;2023-02-02T02:17:00;100377.13;;;3.90;100.00
7052;BME280;3567;52.444;13.556;2023-02-02T02:22:10;100384.50;;;3.95;100.00
7052;BME280;3567;52.444;13.556;2023-02-02T02:25:31;100390.22;;;3.99;100.00
7052;BME280;3567;52.444;13.556;2023-02-02T02:39:11;100417.88;;;4.17;100.00
7052;BME280;3567;52.444;13.556;2023-02-02T02:41:48;100413.63;;;4.23;100.00
7052;BME280;3567;52.444;13.556;2023-02-02T02:44:16;100415.69;;;4.28;100.00
7052;BME280;3567;52.444;13.556;2023-02-02T02:46:44;100420.59;;;4.31;100.00
7052;BME280;3567;52.444;13.556;2023-02-02T02:49:10;100414.47;;;4.30;100.00
7052;BME280;3567;52.444;13.556;2023-02-02T02:51:44;100416.94;;;4.32;100.00
7052;BME280;3567;52.444;13.556;2023-02-02T02:54:18;100414.28;;;4.32;100.00
7052;BME280;3567;52.444;13.556;2023-02-02T03:03:01;100408.22;;;4.38;100.00
7052;BME280;3567;52.444;13.556;2023-02-02T03:05:37;100418.81;;;4.38;100.00
7052;BME280;3567;52.444;13.556;2023-02-02T03:11:09;100432.91;;;4.45;100.00
7052;BME280;3567;52.444;13.556;2023-02-02T03:13:35;100437.19;;;4.46;100.00
7052;BME280;3567;52.444;13.556;2023-02-02T03:16:00;100430.88;;;4.47;100.00
7052;BME280;3567;52.444;13.556;2023-02-02T03:18:28;100441.94;;;4.51;100.00
7052;BME280;3567;52.444;13.556;2023-02-02T03:20:55;100458.66;;;4.51;100.00
7052;BME280;3567;52.444;13.556;2023-02-02T03:23:20;100423.16;;;4.52;100.00
7052;BME280;3567;52.444;13.556;2023-02-02T03:25:46;100451.75;;;4.57;100.00
7052;BME280;3567;52.444;13.556;2023-02-02T03:28:12;100439.13;;;4.59;100.00
7052;BME280;3567;52.444;13.556;2023-02-02T03:30:39;100466.06;;;4.62;100.00
7052;BME280;3567;52.444;13.556;2023-02-02T03:33:06;100477.09;;;4.66;100.00
7052;BME280;3567;52.444;13.556;2023-02-02T03:35:31;100475.88;;;4.68;100.00
7052;BME280;3567;52.444;13.556;2023-02-02T03:37:57;100474.66;;;4.64;100.00
7052;BME280;3567;52.444;13.556;2023-02-02T03:40:22;100481.97;;;4.62;100.00
7052;BME280;3567;52.444;13.556;2023-02-02T03:42:48;100499.53;;;4.63;100.00
7052;BME280;3567;52.444;13.556;2023-02-02T03:45:13;100503.19;;;4.62;100.00
7052;BME280;3567;52.444;13.556;2023-02-02T03:47:39;100510.91;;;4.57;100.00
7052;BME280;3567;52.444;13.556;2023-02-02T03:50:05;100500.31;;;4.57;100.00
7052;BME280;3567;52.444;13.556;2023-02-02T03:52:31;100513.97;;;4.54;100.00
7052;BME280;3567;52.444;13.556;2023-02-02T03:54:56;100517.00;;;4.51;100.00
7052;BME280;3567;52.444;13.556;2023-02-02T03:57:21;100529.25;;;4.52;100.00
7052;BME280;3567;52.444;13.556;2023-02-02T03:59:47;100530.47;;;4.50;100.00
7052;BME280;3567;52.444;13.556;2023-02-02T04:02:12;100542.09;;;4.49;100.00
7052;BME280;3567;52.444;13.556;2023-02-02T04:04:37;100541.66;;;4.45;100.00
7052;BME280;3567;52.444;13.556;2023-02-02T04:07:03;100536.16;;;4.46;100.00
7052;BME280;3567;52.444;13.556;2023-02-02T04:09:29;100545.56;;;4.49;100.00
7052;BME280;3567;52.444;13.556;2023-02-02T04:11:54;100555.97;;;4.51;100.00
7052;BME280;3567;52.444;13.556;2023-02-02T04:14:20;100566.78;;;4.49;100.00
7052;BME280;3567;52.444;13.556;2023-02-02T04:16:45;100564.34;;;4.47;100.00
7052;BME280;3567;52.444;13.556;2023-02-02T04:19:10;100577.00;;;4.52;100.00
7052;BME280;3567;52.444;13.556;2023-02-02T04:21:37;100582.31;;;4.52;100.00
7052;BME280;3567;52.444;13.556;2023-02-02T04:24:04;100577.66;;;4.54;100.00
7052;BME280;3567;52.444;13.556;2023-02-02T04:26:30;100592.91;;;4.52;100.00
7052;BME280;3567;52.444;13.556;2023-02-02T04:28:55;100594.56;;;4.53;100.00
7052;BME280;3567;52.444;13.556;2023-02-02T04:31:20;100598.03;;;4.54;100.00
7052;BME280;3567;52.444;13.556;2023-02-02T04:33:46;100597.22;;;4.53;100.00
7052;BME280;3567;52.444;13.556;2023-02-02T04:36:11;100599.28;;;4.58;100.00
7052;BME280;3567;52.444;13.556;2023-02-02T04:38:37;100605.22;;;4.60;100.00
7052;BME280;3567;52.444;13.556;2023-02-02T04:41:10;100607.25;;;4.58;100.00
7052;BME280;3567;52.444;13.556;2023-02-02T04:43:36;100617.69;;;4.59;100.00
7052;BME280;3567;52.444;13.556;2023-02-02T04:46:02;100613.56;;;4.57;100.00
7052;BME280;3567;52.444;13.556;2023-02-02T04:48:28;100624.38;;;4.55;100.00
7052;BME280;3567;52.444;13.556;2023-02-02T04:50:58;100631.72;;;4.53;100.00
7052;BME280;3567;52.444;13.556;2023-02-02T04:53:24;100631.25;;;4.50;100.00
7052;BME280;3567;52.444;13.556;2023-02-02T04:55:50;100637.03;;;4.53;100.00
7052;BME280;3567;52.444;13.556;2023-02-02T04:58:15;100649.88;;;4.56;100.00
7052;BME280;3567;52.444;13.556;2023-02-02T05:00:40;100642.38;;;4.60;100.00
7052;BME280;3567;52.444;13.556;2023-02-02T05:03:05;100640.34;;;4.62;100.00
7052;BME280;3567;52.444;13.556;2023-02-02T05:05:31;100656.69;;;4.65;100.00
7052;BME280;3567;52.444;13.556;2023-02-02T05:07:56;100653.66;;;4.68;100.00
7052;BME280;3567;52.444;13.556;2023-02-02T05:10:21;100658.97;;;4.68;100.00
7052;BME280;3567;52.444;13.556;2023-02-02T05:12:47;100659.59;;;4.70;100.00
7052;BME280;3567;52.444;13.556;2023-02-02T05:15:12;100665.94;;;4.69;100.00
7052;BME280;3567;52.444;13.556;2023-02-02T05:17:38;100673.88;;;4.69;100.00
7052;BME280;3567;52.444;13.556;2023-02-02T05:20:03;100681.19;;;4.67;100.00
7052;BME280;3567;52.444;13.556;2023-02-02T05:22:28;100678.69;;;4.59;100.00
7052;BME280;3567;52.444;13.556;2023-02-02T05:24:54;100688.03;;;4.55;100.00
7052;BME280;3567;52.444;13.556;2023-02-02T05:27:19;100683.88;;;4.46;100.00
7052;BME280;3567;52.444;13.556;2023-02-02T05:29:46;100689.94;;;4.40;100.00
7052;BME280;3567;52.444;13.556;2023-02-02T05:32:11;100704.19;;;4.39;100.00
7052;BME280;3567;52.444;13.556;2023-02-02T05:34:36;100703.59;;;4.37;100.00
7052;BME280;3567;52.444;13.556;2023-02-02T05:37:02;100724.16;;;4.35;100.00
7052;BME280;3567;52.444;13.556;2023-02-02T05:39:27;100721.88;;;4.32;100.00
7052;BME280;3567;52.444;13.556;2023-02-02T05:41:52;100728.19;;;4.31;100.00
7052;BME280;3567;52.444;13.556;2023-02-02T05:44:18;100729.38;;;4.28;100.00
7052;BME280;3567;52.444;13.556;2023-02-02T05:46:43;100737.53;;;4.27;100.00
7052;BME280;3567;52.444;13.556;2023-02-02T05:49:13;100735.06;;;4.25;100.00
7052;BME280;3567;52.444;13.556;2023-02-02T05:51:42;100746.66;;;4.24;100.00
7052;BME280;3567;52.444;13.556;2023-02-02T05:54:08;100744.84;;;4.25;100.00
7052;BME280;3567;52.444;13.556;2023-02-02T05:56:34;100742.19;;;4.25;100.00
7052;BME280;3567;52.444;13.556;2023-02-02T05:58:59;100749.13;;;4.26;100.00
7052;BME280;3567;52.444;13.556;2023-02-02T06:01:25;100756.38;;;4.32;100.00
7052;BME280;3567;52.444;13.556;2023-02-02T06:03:50;100756.53;;;4.30;100.00
7052;BME280;3567;52.444;13.556;2023-02-02T06:06:15;100761.66;;;4.32;100.00
7052;BME280;3567;52.444;13.556;2023-02-02T06:08:41;100756.38;;;4.32;100.00
7052;BME280;3567;52.444;13.556;2023-02-02T06:11:10;100769.78;;;4.30;100.00
7052;BME280;3567;52.444;13.556;2023-02-02T06:13:36;100760.00;;;4.31;100.00
7052;BME280;3567;52.444;13.556;2023-02-02T06:16:01;100776.56;;;4.33;100.00
7052;BME280;3567;52.444;13.556;2023-02-02T06:18:27;100784.53;;;4.33;100.00
7052;BME280;3567;52.444;13.556;2023-02-02T06:20:56;100795.94;;;4.33;100.00
7052;BME280;3567;52.444;13.556;2023-02-02T06:23:22;100800.50;;;4.39;100.00
7052;BME280;3567;52.444;13.556;2023-02-02T06:25:48;100799.94;;;4.44;100.00
7052;BME280;3567;52.444;13.556;2023-02-02T06:28:13;100805.06;;;4.45;100.00
7052;BME280;3567;52.444;13.556;2023-02-02T06:30:38;100812.00;;;4.46;100.00
7052;BME280;3567;52.444;13.556;2023-02-02T06:33:04;100811.00;;;4.47;100.00
7052;BME280;3567;52.444;13.556;2023-02-02T06:35:29;100817.75;;;4.50;100.00
7052;BME280;3567;52.444;13.556;2023-02-02T06:37:54;100819.41;;;4.51;100.00
7052;BME280;3567;52.444;13.556;2023-02-02T06:40:20;100825.16;;;4.55;100.00
7052;BME280;3567;52.444;13.556;2023-02-02T06:42:45;100823.34;;;4.55;100.00
7052;BME280;3567;52.444;13.556;2023-02-02T06:45:10;100832.09;;;4.56;100.00
7052;BME280;3567;52.444;13.556;2023-02-02T06:47:36;100832.94;;;4.56;100.00
7052;BME280;3567;52.444;13.556;2023-02-02T06:50:02;100833.13;;;4.55;100.00
7052;BME280;3567;52.444;13.556;2023-02-02T06:52:27;100844.34;;;4.57;100.00
7052;BME280;3567;52.444;13.556;2023-02-02T06:54:53;100851.50;;;4.56;100.00
7052;BME280;3567;52.444;13.556;2023-02-02T06:57:18;100854.81;;;4.58;100.00
7052;BME280;3567;52.444;13.556;2023-02-02T06:59:43;100860.53;;;4.62;100.00
7052;BME280;3567;52.444;13.556;2023-02-02T07:02:11;100857.06;;;4.61;100.00
7052;BME280;3567;52.444;13.556;2023-02-02T07:04:37;100872.63;;;4.64;100.00
7052;BME280;3567;52.444;13.556;2023-02-02T07:07:03;100881.56;;;4.63;100.00
7052;BME280;3567;52.444;13.556;2023-02-02T07:09:31;100877.94;;;4.64;100.00
7052;BME280;3567;52.444;13.556;2023-02-02T07:11:57;100884.88;;;4.65;100.00
7052;BME280;3567;52.444;13.556;2023-02-02T07:14:22;100888.16;;;4.67;100.00
7052;BME280;3567;52.444;13.556;2023-02-02T07:16:48;100897.13;;;4.66;100.00
7052;BME280;3567;52.444;13.556;2023-02-02T07:19:13;100907.56;;;4.68;98.93
7052;BME280;3567;52.444;13.556;2023-02-02T07:21:38;100898.78;;;4.67;99.67
7052;BME280;3567;52.444;13.556;2023-02-02T07:24:04;100918.00;;;4.69;98.41
7052;BME280;3567;52.444;13.556;2023-02-02T07:26:30;100914.16;;;4.72;98.64
7052;BME280;3567;52.444;13.556;2023-02-02T07:28:55;100917.25;;;4.76;99.23
7052;BME280;3567;52.444;13.556;2023-02-02T07:31:23;100922.75;;;4.74;96.58
7052;BME280;3567;52.444;13.556;2023-02-02T07:33:49;100927.47;;;4.79;96.70
7052;BME280;3567;52.444;13.556;2023-02-02T07:36:17;100941.75;;;4.78;95.44
7052;BME280;3567;52.444;13.556;2023-02-02T07:38:44;100947.34;;;4.83;96.91
7052;BME280;3567;52.444;13.556;2023-02-02T07:41:11;100946.72;;;4.81;95.98
7052;BME280;3567;52.444;13.556;2023-02-02T07:43:36;100945.06;;;4.80;94.85
7052;BME280;3567;52.444;13.556;2023-02-02T07:46:04;100941.34;;;4.74;95.06
7052;BME280;3567;52.444;13.556;2023-02-02T07:48:32;100946.38;;;4.69;94.83
7052;BME280;3567;52.444;13.556;2023-02-02T07:51:03;100942.44;;;4.65;94.91
7052;BME280;3567;52.444;13.556;2023-02-02T07:53:29;100948.09;;;4.62;95.58
7052;BME280;3567;52.444;13.556;2023-02-02T07:58:39;100944.75;;;4.53;95.05
7052;BME280;3567;52.444;13.556;2023-02-02T08:01:07;100950.03;;;4.53;94.92
7052;BME280;3567;52.444;13.556;2023-02-02T08:03:33;100955.69;;;4.50;94.66
7052;BME280;3567;52.444;13.556;2023-02-02T08:06:00;100966.78;;;4.54;95.42
7052;BME280;3567;52.444;13.556;2023-02-02T08:08:31;100969.25;;;4.55;95.13
7052;BME280;3567;52.444;13.556;2023-02-02T08:10:57;100973.81;;;4.61;95.23
7052;BME280;3567;52.444;13.556;2023-02-02T08:13:22;100978.47;;;4.74;94.84
7052;BME280;3567;52.444;13.556;2023-02-02T08:15:47;100985.78;;;4.87;95.03
7052;BME280;3567;52.444;13.556;2023-02-02T08:18:13;100985.50;;;4.96;93.87
7052;BME280;3567;52.444;13.556;2023-02-02T08:20:38;100989.94;;;5.11;95.44
7052;BME280;3567;52.444;13.556;2023-02-02T08:23:03;100993.78;;;5.23;95.33
7052;BME280;3567;52.444;13.556;2023-02-02T08:25:29;100998.81;;;5.33;94.10
7052;BME280;3567;52.444;13.556;2023-02-02T08:27:55;101002.22;;;5.48;95.47
7052;BME280;3567;52.444;13.556;2023-02-02T08:30:23;100997.53;;;5.50;94.48
7052;BME280;3567;52.444;13.556;2023-02-02T08:32:49;101009.69;;;5.59;94.84
7052;BME280;3567;52.444;13.556;2023-02-02T08:35:14;101011.91;;;5.56;94.26
7052;BME280;3567;52.444;13.556;2023-02-02T08:37:40;101010.06;;;5.56;94.83
7052;BME280;3567;52.444;13.556;2023-02-02T08:40:06;101010.34;;;5.61;94.63
7052;BME280;3567;52.444;13.556;2023-02-02T08:42:31;101019.94;;;5.62;95.35
7052;BME280;3567;52.444;13.556;2023-02-02T08:44:57;101022.78;;;5.61;94.30
7052;BME280;3567;52.444;13.556;2023-02-02T08:47:22;101019.44;;;5.52;94.75
7052;BME280;3567;52.444;13.556;2023-02-02T08:49:47;101025.13;;;5.49;95.62
7052;BME280;3567;52.444;13.556;2023-02-02T08:52:13;101027.84;;;5.56;96.12
7052;BME280;3567;52.444;13.556;2023-02-02T08:54:38;101032.03;;;5.65;96.12
7052;BME280;3567;52.444;13.556;2023-02-02T08:57:04;101027.81;;;5.70;95.35
7052;BME280;3567;52.444;13.556;2023-02-02T08:59:29;101034.00;;;5.77;95.85
7052;BME280;3567;52.444;13.556;2023-02-02T09:01:54;101040.84;;;5.87;95.10
7052;BME280;3567;52.444;13.556;2023-02-02T09:04:20;101034.13;;;5.91;94.58
7052;BME280;3567;52.444;13.556;2023-02-02T09:06:47;101044.94;;;5.89;94.13
7052;BME280;3567;52.444;13.556;2023-02-02T09:09:14;101042.84;;;5.85;95.20
7052;BME280;3567;52.444;13.556;2023-02-02T09:11:40;101042.22;;;5.83;94.59
7052;BME280;3567;52.444;13.556;2023-02-02T09:14:06;101046.94;;;5.81;94.65
7052;BME280;3567;52.444;13.556;2023-02-02T09:16:32;101050.75;;;5.93;94.58
7052;BME280;3567;52.444;13.556;2023-02-02T09:18:58;101058.91;;;6.13;93.81
7052;BME280;3567;52.444;13.556;2023-02-02T09:21:24;101062.41;;;6.13;93.17
7052;BME280;3567;52.444;13.556;2023-02-02T09:23:50;101059.75;;;6.13;92.97
7052;BME280;3567;52.444;13.556;2023-02-02T09:26:19;101060.47;;;6.07;92.79
7052;BME280;3567;52.444;13.556;2023-02-02T09:28:50;101067.84;;;6.05;93.01
7052;BME280;3567;52.444;13.556;2023-02-02T09:31:16;101063.66;;;5.96;92.45
7052;BME280;3567;52.444;13.556;2023-02-02T09:33:42;101081.63;;;5.94;92.22
7052;BME280;3567;52.444;13.556;2023-02-02T09:36:08;101070.19;;;6.15;92.24
7052;BME280;3567;52.444;13.556;2023-02-02T09:38:34;101087.81;;;6.44;91.47
7052;BME280;3567;52.444;13.556;2023-02-02T09:41:00;101080.22;;;6.69;90.23
7052;BME280;3567;52.444;13.556;2023-02-02T09:43:47;101075.72;;;6.69;89.02
7052;BME280;3567;52.444;13.556;2023-02-02T09:46:37;101092.84;;;6.60;87.92
7052;BME280;3567;52.444;13.556;2023-02-02T09:49:11;101094.13;;;6.43;87.78
7052;BME280;3567;52.444;13.556;2023-02-02T09:51:42;101108.91;;;6.45;89.32
7052;BME280;3567;52.444;13.556;2023-02-02T09:54:20;101101.34;;;6.49;89.60
7052;BME280;3567;52.444;13.556;2023-02-02T09:56:51;101103.03;;;6.50;88.34
7052;BME280;3567;52.444;13.556;2023-02-02T09:59:23;101103.47;;;6.60;89.14
7052;BME280;3567;52.444;13.556;2023-02-02T10:01:54;101105.56;;;6.65;86.51
7052;BME280;3567;52.444;13.556;2023-02-02T10:06:55;101125.13;;;6.78;85.57
7052;BME280;3567;52.444;13.556;2023-02-02T10:17:37;101113.22;;;6.46;84.52
7052;BME280;3567;52.444;13.556;2023-02-02T10:22:51;101113.22;;;6.46;85.05
7052;BME280;3567;52.444;13.556;2023-02-02T10:25:20;101127.47;;;6.39;84.07
7052;BME280;3567;52.444;13.556;2023-02-02T10:28:10;101120.25;;;6.33;84.22
7052;BME280;3567;52.444;13.556;2023-02-02T10:30:55;101122.84;;;6.26;84.45
7052;BME280;3567;52.444;13.556;2023-02-02T10:33:36;101129.50;;;6.15;84.72
7052;BME280;3567;52.444;13.556;2023-02-02T10:36:26;101138.75;;;6.19;85.67
7052;BME280;3567;52.444;13.556;2023-02-02T10:39:29;101137.13;;;6.18;85.62
7052;BME280;3567;52.444;13.556;2023-02-02T10:42:09;101133.75;;;6.10;85.16
7052;BME280;3567;52.444;13.556;2023-02-02T10:44:59;101128.06;;;6.13;83.98
7052;BME280;3567;52.444;13.556;2023-02-02T10:47:29;101145.16;;;6.25;85.46
7052;BME280;3567;52.444;13.556;2023-02-02T10:52:40;101138.16;;;6.95;82.17
7052;BME280;3567;52.444;13.556;2023-02-02T11:00:26;101155.66;;;7.45;77.18
7052;BME280;3567;52.444;13.556;2023-02-02T11:02:54;101142.88;;;7.34;76.91
7052;BME280;3567;52.444;13.556;2023-02-02T11:05:25;101140.19;;;7.27;76.61
7052;BME280;3567;52.444;13.556;2023-02-02T11:08:16;101155.63;;;7.39;77.50
7052;BME280;3567;52.444;13.556;2023-02-02T11:10:43;101166.53;;;7.50;78.13
7052;BME280;3567;52.444;13.556;2023-02-02T11:13:26;101163.00;;;7.37;75.80
7052;BME280;3567;52.444;13.556;2023-02-02T11:18:41;101182.34;;;7.17;77.00
7052;BME280;3567;52.444;13.556;2023-02-02T11:24:01;101179.50;;;6.91;77.84
7052;BME280;3567;52.444;13.556;2023-02-02T11:29:59;101192.19;;;6.89;77.54
7052;BME280;3567;52.444;13.556;2023-02-02T11:35:24;101193.53;;;7.34;76.90
7052;BME280;3567;52.444;13.556;2023-02-02T11:42:58;101208.16;;;7.17;75.54
7052;BME280;3567;52.444;13.556;2023-02-02T11:45:39;101197.56;;;6.95;74.96
7052;BME280;3567;52.444;13.556;2023-02-02T11:48:21;101206.28;;;6.82;74.68
7052;BME280;3567;52.444;13.556;2023-02-02T11:50:56;101205.59;;;6.74;76.79
7052;BME280;3567;52.444;13.556;2023-02-02T11:53:28;101204.31;;;6.70;77.49
7052;BME280;3567;52.444;13.556;2023-02-02T11:55:55;101206.34;;;6.68;77.99
7052;BME280;3567;52.444;13.556;2023-02-02T12:01:02;101206.94;;;6.63;77.78
7052;BME280;3567;52.444;13.556;2023-02-02T12:03:36;101214.09;;;6.63;78.07
7052;BME280;3567;52.444;13.556;2023-02-02T12:06:23;101214.09;;;6.63;78.28
7052;BME280;3567;52.444;13.556;2023-02-02T12:08:52;101209.38;;;6.65;77.54
7052;BME280;3567;52.444;13.556;2023-02-02T12:14:10;101218.69;;;6.75;78.21
7052;BME280;3567;52.444;13.556;2023-02-02T12:16:52;101231.44;;;6.80;78.84
7052;BME280;3567;52.444;13.556;2023-02-02T12:27:56;101257.75;;;6.68;79.69
7052;BME280;3567;52.444;13.556;2023-02-02T12:44:56;101288.25;;;6.29;86.26
7052;BME280;3567;52.444;13.556;2023-02-02T12:47:43;101278.47;;;6.15;86.46
7052;BME280;3567;52.444;13.556;2023-02-02T13:01:09;101282.09;;;7.64;84.56
7052;BME280;3567;52.444;13.556;2023-02-02T13:08:54;101281.88;;;8.42;80.47
7052;BME280;3567;52.444;13.556;2023-02-02T13:11:32;101300.56;;;8.42;78.35
7052;BME280;3567;52.444;13.556;2023-02-02T13:16:34;101295.88;;;8.09;78.36
7052;BME280;3567;52.444;13.556;2023-02-02T13:19:05;101295.00;;;8.02;77.71
7052;BME280;3567;52.444;13.556;2023-02-02T13:21:34;101304.44;;;7.98;76.93
7052;BME280;3567;52.444;13.556;2023-02-02T13:24:04;101302.41;;;8.00;75.82
7052;BME280;3567;52.444;13.556;2023-02-02T13:26:37;101310.69;;;8.18;75.58
7052;BME280;3567;52.444;13.556;2023-02-02T13:29:34;101312.38;;;8.26;75.71
7052;BME280;3567;52.444;13.556;2023-02-02T13:32:14;101326.69;;;8.18;74.42
7052;BME280;3567;52.444;13.556;2023-02-02T13:40:29;101344.31;;;7.50;72.04
7052;BME280;3567;52.444;13.556;2023-02-02T13:43:05;101351.53;;;7.28;73.61
7052;BME280;3567;52.444;13.556;2023-02-02T14:02:54;101386.50;;;6.16;71.07
7052;BME280;3567;52.444;13.556;2023-02-02T14:05:23;101392.66;;;6.02;71.67
7052;BME280;3567;52.444;13.556;2023-02-02T14:10:30;101392.78;;;5.86;70.32
7052;BME280;3567;52.444;13.556;2023-02-02T14:13:24;101404.03;;;5.73;70.98
7052;BME280;3567;52.444;13.556;2023-02-02T14:16:25;101416.13;;;5.61;71.37
7052;BME280;3567;52.444;13.556;2023-02-02T14:19:17;101428.94;;;5.57;72.02
7052;BME280;3567;52.444;13.556;2023-02-02T14:27:00;101443.88;;;5.58;71.75
7052;BME280;3567;52.444;13.556;2023-02-02T14:32:40;101454.50;;;5.58;72.57
7052;BME280;3567;52.444;13.556;2023-02-02T14:45:44;101489.53;;;5.39;72.23
7052;BME280;3567;52.444;13.556;2023-02-02T14:48:18;101499.56;;;5.29;73.39
7052;BME280;3567;52.444;13.556;2023-02-02T14:50:50;101505.91;;;5.19;73.38
7052;BME280;3567;52.444;13.556;2023-02-02T14:56:07;101516.13;;;4.99;75.08
7052;BME280;3567;52.444;13.556;2023-02-02T15:01:06;101540.06;;;4.83;75.88
7052;BME280;3567;52.444;13.556;2023-02-02T15:03:48;101538.28;;;4.76;76.09
7052;BME280;3567;52.444;13.556;2023-02-02T15:06:32;101536.63;;;4.75;76.03
7052;BME280;3567;52.444;13.556;2023-02-02T15:17:20;101557.22;;;4.64;77.47
7052;BME280;3567;52.444;13.556;2023-02-02T15:22:47;101575.31;;;4.61;78.58
7052;BME280;3567;52.444;13.556;2023-02-02T15:33:36;101600.03;;;4.45;78.29
7052;BME280;3567;52.444;13.556;2023-02-02T15:36:09;101612.47;;;4.36;78.49
7052;BME280;3567;52.444;13.556;2023-02-02T15:38:40;101609.66;;;4.30;78.66
7052;BME280;3567;52.444;13.556;2023-02-02T15:41:30;101612.97;;;4.24;77.65
7052;BME280;3567;52.444;13.556;2023-02-02T15:43:57;101619.59;;;4.19;76.51
7052;BME280;3567;52.444;13.556;2023-02-02T15:46:26;101618.25;;;4.15;77.37
7052;BME280;3567;52.444;13.556;2023-02-02T15:51:49;101632.84;;;4.03;76.07
7052;BME280;3567;52.444;13.556;2023-02-02T15:54:35;101649.22;;;3.99;77.16
7052;BME280;3567;52.444;13.556;2023-02-02T15:57:03;101658.66;;;3.93;76.27
7052;BME280;3567;52.444;13.556;2023-02-02T15:59:45;101654.00;;;3.87;76.47
7052;BME280;3567;52.444;13.556;2023-02-02T16:04:40;101664.59;;;3.79;76.25
7052;BME280;3567;52.444;13.556;2023-02-02T16:07:18;101675.81;;;3.73;76.50
7052;BME280;3567;52.444;13.556;2023-02-02T16:09:45;101679.81;;;3.68;75.92
7052;BME280;3567;52.444;13.556;2023-02-02T16:12:18;101688.69;;;3.59;76.36
7052;BME280;3567;52.444;13.556;2023-02-02T16:14:49;101692.28;;;3.50;75.93
7052;BME280;3567;52.444;13.556;2023-02-02T16:19:50;101704.00;;;3.39;77.65
7052;BME280;3567;52.444;13.556;2023-02-02T16:22:21;101722.34;;;3.33;78.31
7052;BME280;3567;52.444;13.556;2023-02-02T16:24:57;101718.66;;;3.26;77.33
7052;BME280;3567;52.444;13.556;2023-02-02T16:27:25;101723.91;;;3.18;77.80